Time;durP1;ratioP1;P1;durP2;ratioP2;P2;SDS_P1;SDS_P2;PMS_P1;PMS_P2;Temp;Humidity;BMP_temperature;BMP_pressure;BME280_temperature;BME280_humidity;BME280_pressure;Samples;Min_cycle;Max_cycle;Signal;HPM_P1;HPM_P2
2022/01/24 00:02:31;;;;;;;27.77;20.40;;;5.20;95.30;;;;;;6234936;28;20483;-65
2022/01/24 00:05:34;;;;;;;23.57;19.57;;;5.20;94.90;;;;;;6219278;28;20539;-65
2022/01/24 00:08:39;;;;;;;29.67;20.30;;;5.30;94.90;;;;;;6224367;28;20935;-66
2022/01/24 00:11:43;;;;;;;22.80;20.40;;;5.20;94.80;;;;;;6226491;28;20476;-64
2022/01/24 00:14:57;;;;;;;21.83;19.10;;;5.20;94.90;;;;;;6230512;28;20482;-65
2022/01/24 00:18:07;;;;;;;24.20;21.70;;;5.10;94.90;;;;;;6230624;28;20506;-64
2022/01/24 00:27:53;;;;;;;27.43;21.60;;;4.90;95.40;;;;;;6229967;28;20448;-64
2022/01/24 00:30:56;;;;;;;24.37;20.33;;;4.90;95.40;;;;;;6230980;28;20464;-64
2022/01/24 00:34:00;;;;;;;27.00;20.90;;;4.90;95.50;;;;;;6229749;28;20546;-64
2022/01/24 00:37:03;;;;;;;26.57;20.40;;;4.80;95.40;;;;;;6228932;28;20984;-65
2022/01/24 00:40:09;;;;;;;23.80;18.77;;;4.80;95.70;;;;;;6230153;28;20479;-63
2022/01/24 00:43:21;;;;;;;23.73;19.43;;;4.80;95.70;;;;;;6232392;28;20482;-67
2022/01/24 00:46:33;;;;;;;29.97;20.27;;;4.70;95.90;;;;;;6232112;28;20480;-63
2022/01/24 00:49:53;;;;;;;23.70;19.57;;;4.80;96.00;;;;;;6228898;28;20472;-64
2022/01/24 00:53:16;;;;;;;22.40;20.10;;;4.90;96.10;;;;;;6237772;28;20522;-67
2022/01/24 00:56:20;;;;;;;24.63;18.37;;;4.90;95.90;;;;;;6235629;28;20468;-67
2022/01/24 00:59:23;;;;;;;22.53;19.00;;;4.90;95.80;;;;;;6228799;28;20972;-65
2022/01/24 01:02:26;;;;;;;20.23;17.63;;;4.90;95.70;;;;;;6240039;28;20476;-67
2022/01/24 01:05:44;;;;;;;21.00;18.00;;;4.80;95.70;;;;;;6233385;28;20811;-67
2022/01/24 01:18:52;;;;;;;19.47;17.47;;;4.80;96.00;;;;;;6227990;28;20445;-66
2022/01/24 01:21:56;;;;;;;18.77;16.77;;;4.70;96.10;;;;;;6228255;28;20784;-63
2022/01/24 01:24:59;;;;;;;21.00;16.77;;;4.70;96.20;;;;;;6228452;28;20502;-63
2022/01/24 01:28:03;;;;;;;21.10;17.17;;;4.70;96.30;;;;;;6228214;28;20468;-62
2022/01/24 01:31:13;;;;;;;22.50;18.10;;;4.60;96.20;;;;;;6227189;28;20480;-62
2022/01/24 01:34:36;;;;;;;20.87;17.77;;;4.60;96.40;;;;;;6228105;28;20479;-62
2022/01/24 01:54:49;;;;;;;21.83;16.60;;;4.70;96.50;;;;;;6228358;28;20495;-63
2022/01/24 01:57:53;;;;;;;20.43;17.57;;;4.80;96.60;;;;;;6227276;28;20451;-67
2022/01/24 02:01:00;;;;;;;23.00;17.23;;;4.80;96.50;;;;;;6237443;28;20478;-66
2022/01/24 02:04:05;;;;;;;19.33;16.07;;;4.80;96.40;;;;;;6203175;28;20514;-67
2022/01/24 02:07:12;;;;;;;16.97;15.27;;;4.80;96.30;;;;;;6223446;28;20464;-68
2022/01/24 02:10:16;;;;;;;20.40;15.60;;;4.80;96.30;;;;;;6226865;28;20994;-68
2022/01/24 02:13:21;;;;;;;18.70;15.00;;;4.90;96.30;;;;;;6218257;28;20467;-67
2022/01/24 02:16:40;;;;;;;16.90;14.70;;;5.00;96.30;;;;;;6227333;28;20472;-67
2022/01/24 02:20:03;;;;;;;18.10;16.00;;;5.00;96.10;;;;;;6225881;28;20465;-65
2022/01/24 02:26:25;;;;;;;21.03;14.63;;;5.00;96.20;;;;;;6224205;28;20829;-69
2022/01/24 02:29:44;;;;;;;15.00;13.57;;;5.10;95.90;;;;;;6226352;28;20480;-66
2022/01/24 02:32:48;;;;;;;15.80;14.10;;;5.10;95.80;;;;;;6228588;28;20472;-66
2022/01/24 02:35:52;;;;;;;21.03;15.10;;;5.20;95.70;;;;;;6232106;28;20471;-64
2022/01/24 02:39:07;;;;;;;16.57;14.80;;;5.20;95.70;;;;;;6228658;28;20970;-63
2022/01/24 02:48:52;;;;;;;15.23;13.23;;;5.10;95.70;;;;;;6201702;28;20445;-63
2022/01/24 02:52:03;;;;;;;15.43;12.90;;;5.00;95.70;;;;;;6201600;28;20485;-63
2022/01/24 02:55:08;;;;;;;16.03;14.37;;;4.90;95.90;;;;;;6201434;28;20477;-64
2022/01/24 02:58:12;;;;;;;15.40;13.80;;;4.80;96.00;;;;;;6201787;28;20465;-65
2022/01/24 03:01:15;;;;;;;16.33;13.00;;;4.80;96.30;;;;;;6201365;28;20511;-65
2022/01/24 03:04:19;;;;;;;16.63;14.83;;;4.60;96.70;;;;;;6201392;28;20906;-65
2022/01/24 03:07:22;;;;;;;20.23;13.93;;;4.60;97.00;;;;;;6219815;28;20475;-64
2022/01/24 03:10:29;;;;;;;15.33;13.27;;;4.50;97.30;;;;;;6225349;28;20476;-64
2022/01/24 03:13:35;;;;;;;17.30;14.90;;;4.40;97.60;;;;;;6231913;28;20474;-65
2022/01/24 03:16:38;;;;;;;16.63;14.93;;;4.40;98.10;;;;;;6245401;28;20490;-65
2022/01/24 03:19:42;;;;;;;14.97;13.47;;;4.30;98.40;;;;;;6249780;28;20546;-66
2022/01/24 03:22:45;;;;;;;16.60;14.87;;;4.40;98.60;;;;;;6249809;28;20470;-65
2022/01/24 03:25:49;;;;;;;17.57;14.90;;;4.40;98.70;;;;;;6249930;28;20466;-65
2022/01/24 03:28:52;;;;;;;17.73;15.37;;;4.40;98.80;;;;;;6249689;28;20467;-65
2022/01/24 03:31:56;;;;;;;18.37;16.37;;;4.40;98.90;;;;;;6249672;28;20861;-65
2022/01/24 03:34:59;;;;;;;20.57;17.30;;;4.50;99.00;;;;;;6251534;28;20490;-65
2022/01/24 03:38:04;;;;;;;19.50;17.53;;;4.50;99.00;;;;;;6250925;28;20483;-65
2022/01/24 03:41:08;;;;;;;19.60;16.90;;;4.50;99.00;;;;;;6238866;28;20479;-65
2022/01/24 03:44:14;;;;;;;21.60;18.17;;;4.50;99.00;;;;;;6225935;28;20483;-65
2022/01/24 03:47:40;;;;;;;19.30;16.53;;;4.50;99.00;;;;;;6225910;28;20472;-65
2022/01/24 03:50:43;;;;;;;20.97;18.50;;;4.60;99.10;;;;;;6225924;28;20472;-65
2022/01/24 03:53:48;;;;;;;22.57;17.73;;;4.60;99.10;;;;;;6225582;28;20467;-65
2022/01/24 03:56:52;;;;;;;19.70;17.20;;;4.50;99.20;;;;;;6225260;28;20487;-65
2022/01/24 03:59:55;;;;;;;23.83;17.73;;;4.50;99.60;;;;;;6225481;28;21027;-65
2022/01/24 04:02:59;;;;;;;26.73;18.23;;;4.50;99.70;;;;;;6225198;28;20832;-64
2022/01/24 04:06:02;;;;;;;25.13;19.00;;;4.40;99.90;;;;;;6229630;28;20467;-64
2022/01/24 04:09:05;;;;;;;23.93;18.07;;;4.30;99.90;;;;;;6229578;28;20540;-67
2022/01/24 04:12:11;;;;;;;23.20;18.10;;;4.20;99.90;;;;;;6229130;28;20488;-65
2022/01/24 04:15:34;;;;;;;22.53;18.50;;;4.20;99.90;;;;;;6229399;28;20955;-63
2022/01/24 04:18:45;;;;;;;21.23;16.73;;;4.20;99.90;;;;;;6229186;28;20454;-64
2022/01/24 04:21:49;;;;;;;25.23;18.13;;;4.20;99.90;;;;;;6225109;28;20522;-67
2022/01/24 04:24:59;;;;;;;26.13;19.27;;;4.30;99.90;;;;;;6229039;28;20899;-66
2022/01/24 04:28:03;;;;;;;23.53;18.40;;;4.20;99.90;;;;;;6229651;28;20565;-65
2022/01/24 04:31:06;;;;;;;22.90;18.93;;;4.10;99.90;;;;;;6229659;28;20548;-65
2022/01/24 04:34:10;;;;;;;27.67;19.17;;;3.90;99.90;;;;;;6229456;28;20533;-65
2022/01/24 04:37:13;;;;;;;27.10;18.83;;;4.00;99.90;;;;;;6229184;28;20525;-65
2022/01/24 04:40:16;;;;;;;26.17;18.53;;;4.00;99.90;;;;;;6229198;28;20468;-65
2022/01/24 04:43:31;;;;;;;25.77;16.80;;;4.10;99.90;;;;;;6228622;28;20808;-65
2022/01/24 04:53:31;;;;;;;27.20;18.60;;;4.00;99.90;;;;;;6229402;28;20972;-67
2022/01/24 04:56:35;;;;;;;24.70;18.10;;;4.00;99.90;;;;;;6229478;28;20475;-67
2022/01/24 04:59:47;;;;;;;24.47;17.57;;;4.10;99.90;;;;;;6229364;28;20480;-67
2022/01/24 05:02:51;;;;;;;26.70;19.20;;;4.10;99.90;;;;;;6228986;28;20809;-67
2022/01/24 05:05:54;;;;;;;27.57;19.80;;;4.10;99.90;;;;;;6232973;28;20554;-67
2022/01/24 05:08:57;;;;;;;26.27;19.97;;;3.90;99.90;;;;;;6233268;28;20480;-67
2022/01/24 05:12:05;;;;;;;24.70;17.97;;;3.90;99.90;;;;;;6232343;28;20827;-67
2022/01/24 05:25:10;;;;;;;20.10;15.63;;;3.90;99.90;;;;;;6168103;28;20485;-64
2022/01/24 05:28:13;;;;;;;18.07;13.53;;;3.80;99.90;;;;;;6204524;28;20531;-67
2022/01/24 05:31:17;;;;;;;20.40;13.80;;;3.80;99.90;;;;;;6204946;28;20473;-67
2022/01/24 05:34:21;;;;;;;18.80;15.27;;;3.80;99.90;;;;;;6203871;28;20492;-64
2022/01/24 05:37:24;;;;;;;17.20;14.87;;;3.70;99.90;;;;;;6213935;28;20476;-66
2022/01/24 05:40:27;;;;;;;14.20;11.33;;;3.80;99.90;;;;;;6208939;28;20483;-66
2022/01/24 05:43:30;;;;;;;16.27;11.40;;;3.70;99.90;;;;;;6203303;28;20789;-66
2022/01/24 05:46:36;;;;;;;14.87;12.20;;;3.70;99.90;;;;;;6203433;28;20559;-66
2022/01/24 05:49:39;;;;;;;12.87;10.07;;;3.50;99.90;;;;;;6203521;28;20554;-66
2022/01/24 05:52:42;;;;;;;16.37;10.93;;;3.40;99.90;;;;;;6203174;28;20472;-66
2022/01/24 05:55:45;;;;;;;16.70;12.57;;;3.40;99.90;;;;;;6203250;28;20937;-66
2022/01/24 05:58:48;;;;;;;14.43;11.37;;;3.20;99.90;;;;;;6202788;28;20957;-66
2022/01/24 06:01:54;;;;;;;15.00;11.20;;;3.10;99.90;;;;;;6202850;28;20921;-66
2022/01/24 06:04:57;;;;;;;14.27;10.60;;;3.10;99.90;;;;;;6202043;28;20979;-64
2022/01/24 06:08:00;;;;;;;12.33;9.60;;;3.10;99.90;;;;;;6202979;28;20945;-64
2022/01/24 06:11:04;;;;;;;12.97;10.60;;;3.10;99.90;;;;;;6213383;28;20981;-65
2022/01/24 06:14:07;;;;;;;11.73;10.53;;;3.10;99.90;;;;;;6226714;28;20479;-65
2022/01/24 06:17:11;;;;;;;13.33;10.70;;;3.20;99.90;;;;;;6226508;28;20472;-65
2022/01/24 06:20:15;;;;;;;14.07;12.13;;;3.30;99.90;;;;;;6226381;28;20487;-65
2022/01/24 06:23:18;;;;;;;14.67;10.87;;;3.20;99.90;;;;;;6226211;28;20479;-65
2022/01/24 06:26:21;;;;;;;15.17;10.80;;;3.20;99.90;;;;;;6226173;28;20472;-66
2022/01/24 06:29:25;;;;;;;15.50;10.93;;;3.20;99.90;;;;;;6217145;28;20487;-64
2022/01/24 06:32:29;;;;;;;18.47;11.60;;;3.20;99.90;;;;;;6225978;28;20471;-64
2022/01/24 06:35:32;;;;;;;13.40;10.83;;;3.20;99.90;;;;;;6226334;28;20476;-65
2022/01/24 06:38:35;;;;;;;14.97;11.63;;;3.20;99.90;;;;;;6226031;28;20475;-65
2022/01/24 06:41:39;;;;;;;12.70;10.53;;;3.30;99.90;;;;;;6226159;28;20828;-65
2022/01/24 06:44:42;;;;;;;18.17;11.90;;;3.30;99.90;;;;;;6226940;28;20549;-67
2022/01/24 06:47:47;;;;;;;15.50;11.97;;;3.30;99.90;;;;;;6226972;28;20968;-67
2022/01/24 06:50:51;;;;;;;14.60;11.30;;;3.30;99.90;;;;;;6226884;28;20870;-67
2022/01/24 06:53:54;;;;;;;13.50;11.07;;;3.30;99.90;;;;;;6226327;28;20793;-67
2022/01/24 06:56:57;;;;;;;16.17;11.60;;;3.40;99.90;;;;;;6227314;28;20523;-67
2022/01/24 07:00:00;;;;;;;15.17;12.40;;;3.30;99.90;;;;;;6227907;28;20472;-67
2022/01/24 07:03:05;;;;;;;16.03;13.50;;;3.30;99.90;;;;;;6226529;28;20467;-67
2022/01/24 07:06:08;;;;;;;15.50;13.20;;;3.20;99.90;;;;;;6226396;28;20491;-67
2022/01/24 07:09:12;;;;;;;16.30;12.47;;;3.00;99.90;;;;;;6226378;28;20959;-66
2022/01/24 07:12:16;;;;;;;18.27;14.60;;;2.70;99.90;;;;;;6226226;28;20495;-67
2022/01/24 07:15:21;;;;;;;20.57;15.30;;;2.70;99.90;;;;;;6226429;28;21017;-66
2022/01/24 07:21:46;;;;;;;21.37;15.03;;;2.10;99.90;;;;;;6227048;28;20472;-66
2022/01/24 07:24:49;;;;;;;16.23;14.10;;;2.10;99.90;;;;;;6226235;28;20460;-67
2022/01/24 07:27:52;;;;;;;18.30;15.17;;;2.00;99.90;;;;;;6227110;28;20459;-67
2022/01/24 07:30:55;;;;;;;22.00;15.20;;;1.80;99.90;;;;;;6222723;28;20536;-66
2022/01/24 07:34:00;;;;;;;20.50;14.27;;;1.80;99.90;;;;;;6226394;28;20468;-67
2022/01/24 07:37:03;;;;;;;19.30;14.17;;;1.70;99.90;;;;;;6227374;28;20479;-67
2022/01/24 07:40:09;;;;;;;17.63;12.80;;;1.80;99.90;;;;;;6230758;28;20954;-67
2022/01/24 07:43:12;;;;;;;19.23;14.10;;;1.90;99.90;;;;;;6232261;28;20472;-67
2022/01/24 07:46:16;;;;;;;19.40;14.20;;;1.70;99.90;;;;;;6231836;28;20490;-67
2022/01/24 07:49:21;;;;;;;18.43;14.53;;;1.70;99.90;;;;;;6230430;28;20570;-67
2022/01/24 07:52:24;;;;;;;19.63;14.90;;;1.80;99.90;;;;;;6230836;28;20491;-67
2022/01/24 07:55:28;;;;;;;16.30;13.23;;;1.80;99.90;;;;;;6230419;28;20490;-67
2022/01/24 07:58:31;;;;;;;18.80;12.83;;;1.90;99.90;;;;;;6230818;28;20972;-67
2022/01/24 08:01:34;;;;;;;14.80;12.60;;;2.00;99.90;;;;;;6230656;28;21013;-67
2022/01/24 08:04:40;;;;;;;15.70;12.43;;;2.10;99.90;;;;;;6232102;28;20471;-68
2022/01/24 08:07:43;;;;;;;16.23;11.77;;;2.20;99.90;;;;;;6230931;28;20479;-67
2022/01/24 08:10:46;;;;;;;19.00;13.73;;;2.20;99.90;;;;;;6230874;28;20952;-68
2022/01/24 08:13:49;;;;;;;14.03;12.53;;;2.20;99.90;;;;;;6229468;28;20476;-67
2022/01/24 08:16:54;;;;;;;16.20;12.10;;;2.30;99.90;;;;;;6234182;28;20471;-68
2022/01/24 08:19:58;;;;;;;16.57;11.10;;;2.40;99.90;;;;;;6233623;28;20483;-68
2022/01/24 08:23:02;;;;;;;15.30;11.60;;;2.40;99.90;;;;;;6233097;28;20475;-64
2022/01/24 08:26:05;;;;;;;12.50;11.07;;;2.40;99.90;;;;;;6229785;28;20842;-66
2022/01/24 08:29:09;;;;;;;11.50;10.30;;;2.50;99.90;;;;;;6230191;28;20786;-66
2022/01/24 08:32:12;;;;;;;15.80;10.17;;;2.50;99.90;;;;;;6229610;28;20494;-67
2022/01/24 08:35:18;;;;;;;13.07;11.80;;;2.50;99.90;;;;;;6228843;28;20471;-67
2022/01/24 08:38:23;;;;;;;14.17;10.47;;;2.50;99.90;;;;;;6216005;28;20483;-66
2022/01/24 08:41:38;;;;;;;13.03;10.77;;;2.50;99.90;;;;;;6229822;28;20476;-66
2022/01/24 08:48:02;;;;;;;12.67;10.80;;;2.60;99.90;;;;;;6227853;28;20475;-66
2022/01/24 08:51:07;;;;;;;15.63;12.03;;;2.70;99.90;;;;;;6228231;28;20487;-66
2022/01/24 08:54:10;;;;;;;12.43;9.47;;;2.70;99.90;;;;;;6224057;28;21038;-66
2022/01/24 08:57:13;;;;;;;12.87;9.93;;;2.80;99.90;;;;;;6228260;28;20463;-66
2022/01/24 09:00:17;;;;;;;12.77;10.70;;;2.70;99.90;;;;;;6228397;28;20936;-66
2022/01/24 09:03:21;;;;;;;17.40;12.03;;;2.70;99.90;;;;;;6227720;28;20475;-67
2022/01/24 09:06:28;;;;;;;11.50;9.90;;;2.80;99.90;;;;;;6229241;28;20472;-66
2022/01/24 09:09:31;;;;;;;13.13;10.43;;;2.90;99.90;;;;;;6229817;28;20475;-66
2022/01/24 09:12:34;;;;;;;14.43;9.37;;;3.00;99.90;;;;;;6229203;28;20491;-66
2022/01/24 09:15:38;;;;;;;14.43;10.90;;;3.10;99.90;;;;;;6228772;28;20800;-66
2022/01/24 09:18:41;;;;;;;13.50;11.17;;;3.10;99.90;;;;;;6228102;28;20460;-66
2022/01/24 09:21:45;;;;;;;13.43;10.07;;;3.00;99.90;;;;;;6204597;28;20461;-66
2022/01/24 09:24:48;;;;;;;15.13;11.40;;;3.00;99.90;;;;;;6203445;28;20452;-67
2022/01/24 09:27:52;;;;;;;15.37;10.50;;;2.90;99.90;;;;;;6204373;28;20441;-66
2022/01/24 09:30:55;;;;;;;18.00;12.40;;;2.90;99.90;;;;;;6204459;28;20473;-65
2022/01/24 09:33:58;;;;;;;18.90;12.47;;;2.80;99.90;;;;;;6204836;28;20496;-68
2022/01/24 09:37:03;;;;;;;17.43;12.87;;;2.70;99.90;;;;;;6203044;28;20945;-65
2022/01/24 09:40:12;;;;;;;13.43;10.90;;;2.70;99.90;;;;;;6193631;28;20473;-65
2022/01/24 09:43:18;;;;;;;13.10;11.03;;;2.80;99.90;;;;;;6203695;28;20485;-66
2022/01/24 09:46:21;;;;;;;13.83;11.00;;;2.90;99.90;;;;;;6203186;28;20965;-67
2022/01/24 09:49:24;;;;;;;11.60;10.20;;;2.90;99.90;;;;;;6202784;28;20479;-67
2022/01/24 09:52:30;;;;;;;15.17;12.27;;;3.00;99.90;;;;;;6203499;28;20469;-66
2022/01/24 09:55:33;;;;;;;16.23;12.67;;;3.00;99.90;;;;;;6202795;28;20477;-66
2022/01/24 09:58:37;;;;;;;16.60;13.63;;;3.10;99.90;;;;;;6204892;28;20472;-65
2022/01/24 10:01:42;;;;;;;17.00;11.73;;;3.00;99.90;;;;;;6204983;28;20483;-67
2022/01/24 10:04:48;;;;;;;16.17;12.57;;;3.00;99.90;;;;;;6204262;28;20487;-67
2022/01/24 10:07:54;;;;;;;15.00;12.70;;;2.90;99.90;;;;;;6223417;28;20468;-67
2022/01/24 10:11:01;;;;;;;17.13;13.47;;;2.80;99.90;;;;;;6228032;28;20532;-65
2022/01/24 10:17:29;;;;;;;15.73;11.60;;;2.80;99.90;;;;;;6228753;28;20468;-65
2022/01/24 10:20:33;;;;;;;16.97;12.73;;;2.80;99.90;;;;;;6229493;28;20965;-66
2022/01/24 10:23:44;;;;;;;14.67;11.90;;;2.80;99.90;;;;;;6229541;28;20475;-66
2022/01/24 10:27:04;;;;;;;17.03;12.33;;;2.90;99.90;;;;;;6228099;28;20468;-66
2022/01/24 10:30:11;;;;;;;14.57;11.50;;;2.90;99.90;;;;;;6227757;28;20477;-66
2022/01/24 10:33:14;;;;;;;14.33;11.50;;;2.90;99.90;;;;;;6227237;28;20480;-67
2022/01/24 10:36:27;;;;;;;13.43;10.83;;;2.80;99.90;;;;;;6227303;28;20475;-66
2022/01/24 10:39:44;;;;;;;14.40;10.87;;;2.90;99.90;;;;;;6227122;28;20555;-68
2022/01/24 10:42:55;;;;;;;13.47;12.00;;;3.00;99.90;;;;;;6222624;28;20508;-66
2022/01/24 10:45:59;;;;;;;13.07;11.77;;;3.00;99.90;;;;;;6227018;28;20428;-68
2022/01/24 10:49:04;;;;;;;11.83;9.67;;;3.10;99.90;;;;;;6226740;28;20464;-68
2022/01/24 10:52:12;;;;;;;14.53;11.67;;;3.10;99.90;;;;;;6226865;28;20491;-67
2022/01/24 10:55:18;;;;;;;11.20;9.00;;;3.10;99.90;;;;;;6226949;28;20476;-69
2022/01/24 10:58:23;;;;;;;11.27;9.97;;;3.10;99.90;;;;;;6227177;28;20471;-68
2022/01/24 11:01:27;;;;;;;12.03;10.47;;;3.10;99.70;;;;;;6227468;28;20491;-67
2022/01/24 11:04:33;;;;;;;13.20;11.70;;;3.10;99.90;;;;;;6227868;28;20522;-67
2022/01/24 11:07:51;;;;;;;13.37;11.80;;;3.00;99.90;;;;;;6225866;28;20474;-67
2022/01/24 11:10:56;;;;;;;12.43;10.17;;;3.00;99.90;;;;;;6225573;28;21262;-67
2022/01/24 11:14:00;;;;;;;12.70;10.47;;;2.80;99.90;;;;;;6225823;28;20468;-67
2022/01/24 11:17:06;;;;;;;11.30;10.10;;;3.00;99.90;;;;;;6225963;28;21020;-67
2022/01/24 11:20:14;;;;;;;14.30;10.80;;;3.10;99.90;;;;;;6226220;28;20492;-67
2022/01/24 11:23:21;;;;;;;11.57;9.93;;;3.10;99.90;;;;;;6225824;28;20472;-68
2022/01/24 11:26:26;;;;;;;13.40;11.03;;;3.20;99.90;;;;;;6226083;28;20491;-66
2022/01/24 11:29:29;;;;;;;10.93;9.80;;;3.00;99.90;;;;;;6225068;28;20486;-66
2022/01/24 11:32:38;;;;;;;13.53;10.03;;;3.10;99.90;;;;;;6225747;28;20475;-66
2022/01/24 11:35:45;;;;;;;13.30;10.07;;;3.20;99.90;;;;;;6225704;28;20957;-66
2022/01/24 11:38:48;;;;;;;10.43;9.07;;;3.30;99.90;;;;;;6227643;28;20502;-66
2022/01/24 11:41:53;;;;;;;15.23;9.23;;;3.30;99.90;;;;;;6227108;28;20478;-65
2022/01/24 11:44:59;;;;;;;10.90;9.80;;;3.20;99.70;;;;;;6225580;28;20963;-66
2022/01/24 11:48:15;;;;;;;12.30;10.63;;;3.10;99.90;;;;;;6226354;28;20579;-66
2022/01/24 11:51:30;;;;;;;12.07;10.47;;;3.10;99.90;;;;;;6212079;28;20826;-67
2022/01/24 11:54:47;;;;;;;13.73;11.77;;;3.20;99.90;;;;;;6226014;28;20488;-65
2022/01/24 11:57:58;;;;;;;14.23;11.53;;;3.20;99.90;;;;;;6225849;28;20440;-67
2022/01/24 12:01:05;;;;;;;13.10;10.07;;;3.20;99.90;;;;;;6226014;28;20460;-64
2022/01/24 12:04:09;;;;;;;10.37;9.27;;;3.20;99.90;;;;;;6227025;28;20464;-68
2022/01/24 12:07:20;;;;;;;10.93;9.13;;;3.00;99.90;;;;;;6238436;28;20477;-64
2022/01/24 12:10:44;;;;;;;10.23;8.87;;;3.10;99.90;;;;;;6227341;28;20487;-64
2022/01/24 12:13:51;;;;;;;12.77;10.10;;;3.10;99.90;;;;;;6225530;28;20570;-66
2022/01/24 12:16:55;;;;;;;11.87;9.07;;;3.20;99.70;;;;;;6225386;28;20480;-66
2022/01/24 12:19:59;;;;;;;10.90;9.03;;;3.20;99.80;;;;;;6225383;28;21075;-67
2022/01/24 12:23:33;;;;;;;10.80;9.70;;;3.20;99.50;;;;;;6224812;28;20812;-65
2022/01/24 12:26:46;;;;;;;12.50;10.13;;;3.20;99.60;;;;;;6229882;28;20486;-67
2022/01/24 12:29:56;;;;;;;10.80;9.30;;;3.30;99.70;;;;;;6229446;28;20491;-67
2022/01/24 12:33:03;;;;;;;8.40;7.37;;;3.30;99.90;;;;;;6230023;28;20626;-66
2022/01/24 12:36:08;;;;;;;10.83;9.40;;;3.30;99.40;;;;;;6229172;28;20476;-67
2022/01/24 12:39:13;;;;;;;9.37;8.37;;;3.40;99.20;;;;;;6229151;28;20475;-67
2022/01/24 12:42:30;;;;;;;9.23;7.97;;;3.40;99.30;;;;;;6229112;28;20486;-67
2022/01/24 12:48:57;;;;;;;9.40;8.07;;;3.30;98.80;;;;;;6229583;28;20519;-67
2022/01/24 12:52:02;;;;;;;10.00;9.00;;;3.30;99.20;;;;;;6219942;28;20458;-67
2022/01/24 12:55:07;;;;;;;10.27;9.20;;;3.10;98.90;;;;;;6229049;28;20468;-68
2022/01/24 12:58:10;;;;;;;13.30;9.90;;;3.10;99.30;;;;;;6229224;28;20479;-67
2022/01/24 13:01:21;;;;;;;13.30;10.10;;;3.10;99.50;;;;;;6228810;28;20463;-70
2022/01/24 13:04:32;;;;;;;17.73;12.30;;;3.20;99.90;;;;;;6229545;28;20476;-67
2022/01/24 13:07:37;;;;;;;14.70;11.93;;;3.10;99.50;;;;;;6229165;28;20468;-67
2022/01/24 13:10:44;;;;;;;21.70;14.17;;;3.10;99.60;;;;;;6228128;28;20472;-66
2022/01/24 13:14:07;;;;;;;14.27;11.87;;;3.20;99.70;;;;;;6227816;28;20955;-65
2022/01/24 13:24:00;;;;;;;16.73;14.33;;;3.30;99.90;;;;;;6227816;28;20469;-63
2022/01/24 13:27:09;;;;;;;32.40;20.30;;;3.20;99.90;;;;;;6227823;28;20614;-63
2022/01/24 13:30:14;;;;;;;23.07;16.93;;;3.20;99.90;;;;;;6228091;28;20480;-64
2022/01/24 13:33:20;;;;;;;35.13;21.03;;;3.30;99.90;;;;;;6227756;28;20784;-63
2022/01/24 13:36:24;;;;;;;19.20;15.67;;;3.40;99.90;;;;;;6227818;28;20670;-63
2022/01/24 13:39:27;;;;;;;31.70;18.90;;;3.50;99.90;;;;;;6227265;28;20475;-62
2022/01/24 13:42:34;;;;;;;33.47;19.63;;;3.50;99.90;;;;;;6228365;28;20537;-64
2022/01/24 13:45:39;;;;;;;34.17;22.20;;;3.40;99.90;;;;;;6229643;28;20983;-63
2022/01/24 13:48:49;;;;;;;31.47;18.83;;;3.30;99.90;;;;;;6227826;28;20995;-64
2022/01/24 13:51:54;;;;;;;40.00;22.80;;;3.20;99.90;;;;;;6228092;28;20464;-64
2022/01/24 13:55:15;;;;;;;28.87;18.73;;;3.20;99.90;;;;;;6222706;28;20483;-66
2022/01/24 13:58:24;;;;;;;40.10;23.03;;;3.10;99.90;;;;;;6228171;28;20483;-65
2022/01/24 14:01:27;;;;;;;46.70;27.60;;;3.00;99.90;;;;;;6227743;28;20799;-65
2022/01/24 14:04:35;;;;;;;41.33;25.70;;;3.00;99.90;;;;;;6227989;28;20464;-65
2022/01/24 14:07:42;;;;;;;56.60;26.33;;;2.90;99.90;;;;;;6227412;28;20475;-65
2022/01/24 14:10:46;;;;;;;32.50;19.67;;;2.90;99.90;;;;;;6226952;28;20479;-66
2022/01/24 14:13:57;;;;;;;37.53;21.87;;;2.90;99.90;;;;;;6227021;28;20471;-65
2022/01/24 14:17:10;;;;;;;31.20;19.73;;;2.90;99.90;;;;;;6226993;28;20472;-65
2022/01/24 14:20:19;;;;;;;23.77;17.27;;;2.90;99.90;;;;;;6227151;28;20499;-65
2022/01/24 14:23:24;;;;;;;25.93;20.13;;;2.90;99.90;;;;;;6226913;28;20472;-66
2022/01/24 14:26:29;;;;;;;47.17;25.77;;;2.90;99.90;;;;;;6227225;28;20975;-64
2022/01/24 14:29:37;;;;;;;32.70;20.33;;;3.00;99.90;;;;;;6226584;28;20483;-64
2022/01/24 14:32:47;;;;;;;28.80;18.80;;;3.00;99.90;;;;;;6226468;28;20468;-64
2022/01/24 14:35:55;;;;;;;17.00;13.83;;;3.00;99.90;;;;;;6227071;28;20487;-66
2022/01/24 14:39:00;;;;;;;18.57;13.93;;;3.10;99.90;;;;;;6225565;28;20491;-64
2022/01/24 14:42:11;;;;;;;16.43;14.10;;;3.00;99.90;;;;;;6227130;28;20472;-65
2022/01/24 14:45:14;;;;;;;14.37;12.87;;;3.10;99.90;;;;;;6227438;28;20587;-65
2022/01/24 14:48:17;;;;;;;16.40;13.97;;;3.00;99.90;;;;;;6227665;28;20505;-65
2022/01/24 14:51:27;;;;;;;14.70;12.70;;;3.00;99.90;;;;;;6229098;28;20475;-65
2022/01/24 14:54:32;;;;;;;16.87;11.77;;;3.00;99.90;;;;;;6227443;28;20799;-65
2022/01/24 14:57:36;;;;;;;13.77;11.90;;;3.00;99.90;;;;;;6226030;28;20805;-63
2022/01/24 15:00:39;;;;;;;15.70;12.80;;;3.00;99.90;;;;;;6227701;28;20480;-63
2022/01/24 15:03:43;;;;;;;15.70;12.70;;;2.80;99.90;;;;;;6218157;28;20546;-63
2022/01/24 15:06:48;;;;;;;14.33;11.13;;;2.90;99.90;;;;;;6227853;28;20458;-64
2022/01/24 15:09:51;;;;;;;13.57;12.10;;;2.90;99.90;;;;;;6225967;28;20460;-64
2022/01/24 15:12:56;;;;;;;13.80;12.17;;;2.90;99.90;;;;;;6216284;28;20879;-64
2022/01/24 15:16:12;;;;;;;13.50;11.93;;;2.80;99.90;;;;;;6177289;28;20481;-63
2022/01/24 15:26:06;;;;;;;12.93;11.07;;;2.90;99.90;;;;;;6177828;28;20961;-63
2022/01/24 15:29:09;;;;;;;16.17;11.60;;;2.90;99.90;;;;;;6176886;28;20473;-64
2022/01/24 15:32:12;;;;;;;16.20;12.30;;;2.80;99.90;;;;;;6177229;28;20887;-64
2022/01/24 15:35:16;;;;;;;18.90;13.97;;;2.90;99.90;;;;;;6182943;28;20495;-63
2022/01/24 15:38:22;;;;;;;16.47;12.17;;;2.90;99.90;;;;;;6200237;28;20564;-64
2022/01/24 15:41:25;;;;;;;17.57;13.50;;;3.00;99.90;;;;;;6201092;28;20484;-65
2022/01/24 15:44:59;;;;;;;18.30;13.50;;;2.90;99.90;;;;;;6200455;28;20472;-63
2022/01/24 15:47:59;;;;;;;16.87;13.43;;;2.90;99.90;;;;;;6185210;28;20477;-63
2022/01/24 15:51:03;;;;;;;16.97;13.93;;;2.80;99.90;;;;;;6176759;28;20811;-64
2022/01/24 15:54:09;;;;;;;18.43;14.17;;;2.80;99.90;;;;;;6177092;28;20481;-64
2022/01/24 16:00:36;;;;;;;14.27;10.97;;;2.60;99.90;;;;;;6201699;28;20484;-63
2022/01/24 16:03:40;;;;;;;14.83;12.47;;;2.60;99.90;;;;;;6197766;28;20588;-64
2022/01/24 16:06:44;;;;;;;16.00;14.30;;;2.50;99.90;;;;;;6198309;28;20579;-64
2022/01/24 16:09:48;;;;;;;15.20;11.50;;;2.60;99.90;;;;;;6181542;28;20784;-64
2022/01/24 16:12:52;;;;;;;17.57;13.13;;;2.60;99.90;;;;;;6219457;28;20905;-64
2022/01/24 16:15:55;;;;;;;19.03;13.20;;;2.60;99.90;;;;;;6229114;28;20978;-63
2022/01/24 16:18:58;;;;;;;14.67;12.10;;;2.60;99.90;;;;;;6229514;28;20904;-64
2022/01/24 16:22:14;;;;;;;15.60;13.50;;;2.60;99.90;;;;;;6229369;28;20452;-65
2022/01/24 16:25:37;;;;;;;16.83;12.87;;;2.50;99.90;;;;;;6229352;28;20488;-64
2022/01/24 16:28:40;;;;;;;16.13;11.57;;;2.60;99.90;;;;;;6230356;28;20859;-64
2022/01/24 16:31:43;;;;;;;15.47;11.57;;;2.60;99.90;;;;;;6229286;28;20494;-64
2022/01/24 16:34:46;;;;;;;13.53;11.63;;;2.70;99.90;;;;;;6229643;28;21094;-66
2022/01/24 16:37:50;;;;;;;15.70;11.60;;;2.70;99.90;;;;;;6229228;28;20480;-65
2022/01/24 16:41:00;;;;;;;15.17;11.90;;;2.60;99.90;;;;;;6228590;28;20471;-65
2022/01/24 16:44:17;;;;;;;15.90;12.07;;;2.70;99.90;;;;;;6229115;28;20472;-65
2022/01/24 16:47:25;;;;;;;14.23;12.83;;;2.70;99.90;;;;;;6230616;28;20554;-65
2022/01/24 16:50:29;;;;;;;16.33;11.57;;;2.60;99.90;;;;;;6228824;28;20479;-64
2022/01/24 16:53:32;;;;;;;14.47;11.30;;;2.60;99.90;;;;;;6228876;28;20472;-63
2022/01/24 16:56:37;;;;;;;17.33;13.17;;;2.50;99.90;;;;;;6228864;28;20479;-65
2022/01/24 16:59:40;;;;;;;15.30;12.73;;;2.50;99.90;;;;;;6228775;28;20484;-64
2022/01/24 17:02:43;;;;;;;15.83;11.93;;;2.50;99.90;;;;;;6230414;28;20474;-65
2022/01/24 17:05:47;;;;;;;14.90;13.30;;;2.50;99.90;;;;;;6229270;28;20602;-65
2022/01/24 17:08:50;;;;;;;15.67;13.63;;;2.60;99.90;;;;;;6226720;28;20479;-65
2022/01/24 17:11:58;;;;;;;14.83;12.33;;;2.50;99.90;;;;;;6228145;28;20475;-64
2022/01/24 17:15:04;;;;;;;13.40;12.00;;;2.50;99.90;;;;;;6228347;28;20931;-65
2022/01/24 17:18:08;;;;;;;15.47;11.90;;;2.40;99.90;;;;;;6228713;28;20785;-64
2022/01/24 17:21:12;;;;;;;13.57;12.13;;;2.50;99.90;;;;;;6228829;28;20813;-64
2022/01/24 17:24:16;;;;;;;14.00;12.20;;;2.50;99.90;;;;;;6228341;28;20483;-63
2022/01/24 17:27:21;;;;;;;16.00;13.37;;;2.60;99.90;;;;;;6228184;28;20544;-64
2022/01/24 17:30:24;;;;;;;16.67;13.57;;;2.60;99.90;;;;;;6228211;28;20483;-64